createdAt,value
2023-11-10T00:00:15.364Z,1.50
2023-11-10T00:02:45.562Z,2.00
2023-11-10T00:05:13.616Z,2.03
2023-11-10T00:07:41.379Z,2.30
2023-11-10T00:10:09.475Z,2.10
2023-11-10T00:12:37.195Z,2.10
2023-11-10T00:15:10.327Z,2.67
2023-11-10T00:17:37.627Z,2.30
2023-11-10T00:20:05.767Z,1.97
2023-11-10T00:22:32.944Z,2.63
2023-11-10T00:25:01.256Z,1.80
2023-11-10T00:27:28.661Z,1.90
2023-11-10T00:29:57.224Z,2.50
2023-11-10T00:32:25.609Z,2.20
2023-11-10T00:34:53.015Z,2.00
2023-11-10T00:37:20.120Z,2.17
2023-11-10T00:39:47.273Z,2.00
2023-11-10T00:42:14.395Z,1.87
2023-11-10T00:44:41.426Z,2.07
2023-11-10T00:47:08.518Z,1.60
2023-11-10T00:49:35.762Z,2.30
2023-11-10T00:52:02.840Z,1.60
2023-11-10T00:54:30.051Z,1.67
2023-11-10T00:56:57.115Z,1.83
2023-11-10T00:59:24.223Z,1.97
2023-11-10T01:01:51.378Z,1.70
2023-11-10T01:04:19.253Z,1.63
2023-11-10T01:06:46.789Z,1.50
2023-11-10T01:09:14.199Z,1.83
2023-11-10T01:11:41.276Z,2.07
2023-11-10T01:14:08.493Z,1.93
2023-11-10T01:16:36.265Z,1.33
2023-11-10T01:19:03.545Z,1.83
2023-11-10T01:21:30.729Z,1.80
2023-11-10T01:23:57.910Z,2.13
2023-11-10T01:26:26.139Z,1.10
2023-11-10T01:28:53.251Z,1.47
2023-11-10T01:31:21.024Z,1.30
2023-11-10T01:33:48.394Z,1.40
2023-11-10T01:36:15.673Z,1.70
2023-11-10T01:38:42.754Z,1.53
2023-11-10T01:41:10.987Z,2.00
2023-11-10T01:43:38.118Z,1.50
2023-11-10T01:46:07.549Z,1.20
2023-11-10T01:48:37.911Z,2.00
2023-11-10T01:51:06.020Z,1.87
2023-11-10T01:53:33.199Z,2.33
2023-11-10T01:56:01.341Z,1.47
2023-11-10T01:58:28.417Z,1.40
2023-11-10T02:00:56.212Z,1.13
2023-11-10T02:03:25.408Z,1.50
2023-11-10T02:05:52.631Z,1.60
2023-11-10T02:08:19.748Z,1.90
2023-11-10T02:10:46.806Z,1.80
2023-11-10T02:13:22.056Z,2.00
2023-11-10T02:15:49.225Z,1.90
2023-11-10T02:18:17.371Z,1.53
2023-11-10T02:20:44.594Z,1.60
2023-11-10T02:23:11.666Z,1.73
2023-11-10T02:25:38.855Z,1.73
2023-11-10T02:28:06.712Z,1.50
2023-11-10T02:30:33.830Z,1.87
2023-11-10T02:33:01.001Z,1.40
2023-11-10T02:35:28.261Z,1.50
2023-11-10T02:37:56.465Z,1.40
2023-11-10T02:40:23.523Z,1.10
2023-11-10T02:42:50.942Z,1.43
2023-11-10T02:45:18.631Z,1.37
2023-11-10T02:47:45.865Z,1.10
2023-11-10T02:50:13.153Z,1.30
2023-11-10T02:52:40.254Z,1.20
2023-11-10T02:55:07.819Z,1.57
2023-11-10T02:57:34.934Z,1.20
2023-11-10T03:00:02.051Z,1.33
2023-11-10T03:02:29.185Z,1.50
2023-11-10T03:04:56.242Z,1.20
2023-11-10T03:07:23.880Z,1.47
2023-11-10T03:09:50.945Z,1.20
2023-11-10T03:12:18.287Z,1.63
2023-11-10T03:14:45.609Z,1.60
2023-11-10T03:17:12.985Z,1.73
2023-11-10T03:19:42.127Z,1.47
2023-11-10T03:22:11.676Z,1.30
2023-11-10T03:24:39.187Z,1.23
2023-11-10T03:27:06.532Z,0.90
2023-11-10T03:29:33.930Z,1.10
2023-11-10T03:32:00.988Z,1.30
2023-11-10T03:34:28.408Z,1.20
2023-11-10T03:36:55.598Z,1.20
2023-11-10T03:39:22.749Z,1.20
2023-11-10T03:41:49.859Z,1.57
2023-11-10T03:44:17.000Z,1.20
2023-11-10T03:46:44.386Z,1.10
2023-11-10T03:49:12.486Z,1.43
2023-11-10T03:51:39.590Z,1.30
2023-11-10T03:54:07.304Z,1.20
2023-11-10T03:56:36.697Z,1.30
2023-11-10T03:59:05.953Z,1.27
2023-11-10T04:01:33.615Z,1.53
2023-11-10T04:04:02.297Z,1.57
2023-11-10T04:06:37.604Z,1.50
2023-11-10T04:09:08.638Z,1.77
2023-11-10T04:11:35.870Z,1.80
2023-11-10T04:14:02.980Z,1.70
2023-11-10T04:16:30.388Z,1.43
2023-11-10T04:18:57.577Z,1.97
2023-11-10T04:21:27.598Z,1.27
2023-11-10T04:23:54.751Z,1.57
2023-11-10T04:26:21.895Z,1.83
2023-11-10T04:28:49.466Z,1.50
2023-11-10T04:31:17.619Z,1.60
2023-11-10T04:33:45.638Z,1.37
2023-11-10T04:36:16.722Z,1.23
2023-11-10T04:38:46.156Z,1.40
2023-11-10T04:41:13.841Z,1.60
2023-11-10T04:43:44.274Z,1.60
2023-11-10T04:46:11.484Z,1.83
2023-11-10T04:48:39.444Z,1.40
2023-11-10T04:51:07.052Z,1.70
2023-11-10T04:53:35.085Z,1.40
2023-11-10T04:56:02.866Z,1.30
2023-11-10T04:58:31.479Z,1.40
2023-11-10T05:00:58.809Z,1.20
2023-11-10T05:03:27.226Z,1.03
2023-11-10T05:05:54.721Z,1.33
2023-11-10T05:08:23.133Z,1.63
2023-11-10T05:10:50.252Z,1.70
2023-11-10T05:13:17.322Z,2.23
2023-11-10T05:15:45.118Z,1.40
2023-11-10T05:18:58.109Z,1.47
2023-11-10T05:21:02.855Z,1.57
2023-11-10T05:23:30.044Z,1.20
2023-11-10T05:25:58.177Z,1.57
2023-11-10T05:28:25.324Z,1.60
2023-11-10T05:30:52.499Z,1.70
2023-11-10T05:33:19.712Z,1.47
2023-11-10T05:35:47.153Z,1.80
2023-11-10T05:38:15.182Z,1.30
2023-11-10T05:40:42.286Z,1.20
2023-11-10T05:43:10.177Z,1.57
2023-11-10T05:45:37.300Z,1.73
2023-11-10T05:48:04.755Z,1.80
2023-11-10T05:50:31.864Z,1.60
2023-11-10T05:52:59.041Z,1.87
2023-11-10T05:55:26.266Z,1.53
2023-11-10T05:57:53.364Z,1.50
2023-11-10T06:00:20.515Z,1.40
2023-11-10T06:02:51.464Z,1.60
2023-11-10T06:05:20.916Z,1.50
2023-11-10T06:07:48.840Z,1.83
2023-11-10T06:10:18.943Z,1.33
2023-11-10T06:12:46.251Z,1.20
2023-11-10T06:15:14.388Z,1.57
2023-11-10T06:17:41.564Z,1.70
2023-11-10T06:20:09.246Z,1.23
2023-11-10T06:22:36.834Z,1.63
2023-11-10T06:25:07.508Z,1.80
2023-11-10T06:27:35.722Z,2.13
2023-11-10T06:30:05.147Z,1.13
2023-11-10T06:32:32.336Z,1.47
2023-11-10T06:34:59.448Z,1.40
2023-11-10T06:37:27.118Z,1.90
2023-11-10T06:39:54.247Z,1.33
2023-11-10T06:42:22.519Z,1.33
2023-11-10T06:44:51.202Z,1.20
2023-11-10T06:47:18.447Z,0.70
2023-11-10T06:49:45.551Z,1.20
2023-11-10T06:52:12.771Z,1.33
2023-11-10T06:54:40.158Z,1.10
2023-11-10T06:57:07.836Z,1.50
2023-11-10T06:59:36.155Z,0.93
2023-11-10T07:02:04.398Z,1.40
2023-11-10T07:04:31.708Z,1.47
2023-11-10T07:06:58.926Z,1.23
2023-11-10T07:09:27.102Z,1.43
2023-11-10T07:11:54.391Z,1.40
2023-11-10T07:14:21.463Z,1.07
2023-11-10T07:16:51.029Z,1.40
2023-11-10T07:19:20.878Z,1.60
2023-11-10T07:21:49.438Z,1.40
2023-11-10T07:24:16.628Z,1.47
2023-11-10T07:26:44.239Z,1.20
2023-11-10T07:29:11.414Z,1.57
2023-11-10T07:31:39.107Z,1.50
2023-11-10T07:34:06.224Z,2.20
2023-11-10T07:36:33.295Z,2.27
2023-11-10T07:39:00.411Z,2.23
2023-11-10T07:41:27.478Z,1.50
2023-11-10T07:43:54.529Z,1.87
2023-11-10T07:46:21.772Z,1.80
2023-11-10T07:48:48.990Z,6.80
2023-11-10T07:51:16.100Z,2.00
2023-11-10T07:53:43.854Z,1.90
2023-11-10T07:56:11.074Z,2.37
2023-11-10T07:58:38.181Z,1.70
2023-11-10T08:01:05.461Z,1.73
2023-11-10T08:03:32.622Z,2.37
2023-11-10T08:05:59.711Z,1.87
2023-11-10T08:08:26.763Z,2.60
2023-11-10T08:10:53.898Z,2.70
2023-11-10T08:13:20.920Z,1.87
2023-11-10T08:15:49.259Z,3.47
2023-11-10T08:18:16.656Z,3.27
2023-11-10T08:20:44.227Z,2.43
2023-11-10T08:23:12.311Z,2.27
2023-11-10T08:25:39.377Z,2.23
2023-11-10T08:28:09.205Z,2.10
2023-11-10T08:30:37.247Z,2.10
2023-11-10T08:33:04.624Z,2.10
2023-11-10T08:35:31.862Z,1.50
2023-11-10T08:37:58.928Z,1.70
2023-11-10T08:40:26.038Z,1.47
2023-11-10T08:42:53.177Z,1.40
2023-11-10T08:45:20.549Z,1.30
2023-11-10T08:47:47.666Z,1.10
2023-11-10T08:50:14.843Z,1.17
2023-11-10T08:52:43.355Z,1.67
2023-11-10T08:55:14.824Z,1.70
2023-11-10T08:57:42.682Z,1.57
2023-11-10T09:00:11.421Z,1.30
2023-11-10T09:02:43.004Z,1.43
2023-11-10T09:05:14.149Z,1.60
2023-11-10T09:07:42.684Z,1.27
2023-11-10T09:10:13.526Z,1.70
2023-11-10T09:12:44.866Z,1.50
2023-11-10T09:15:16.171Z,0.90
2023-11-10T09:17:45.627Z,1.00
2023-11-10T09:20:14.745Z,1.33
2023-11-10T09:22:41.943Z,1.20
2023-11-10T09:25:11.028Z,1.30
2023-11-10T09:27:38.193Z,1.60
2023-11-10T09:30:06.072Z,1.30
2023-11-10T09:32:33.220Z,1.40
2023-11-10T09:35:00.817Z,1.10
2023-11-10T09:37:28.617Z,1.20
2023-11-10T09:39:58.705Z,1.40
2023-11-10T09:42:27.788Z,1.63
2023-11-10T09:44:58.132Z,1.43
2023-11-10T09:47:27.284Z,1.60
2023-11-10T09:49:54.827Z,1.55
2023-11-10T09:52:22.587Z,1.30
2023-11-10T09:54:52.594Z,2.67
2023-11-10T09:57:23.438Z,1.30
2023-11-10T09:59:53.816Z,1.30
2023-11-10T10:02:20.854Z,0.90
2023-11-10T10:04:47.959Z,1.35
2023-11-10T10:07:15.658Z,0.90
2023-11-10T10:09:43.479Z,1.40
2023-11-10T10:12:12.298Z,0.98
2023-11-10T10:14:40.187Z,1.20
2023-11-10T10:17:12.359Z,1.13
2023-11-10T10:19:39.547Z,1.15
2023-11-10T10:22:06.904Z,1.52
2023-11-10T10:24:34.109Z,1.10
2023-11-10T10:27:01.309Z,1.20
2023-11-10T10:29:30.873Z,1.10
2023-11-10T10:31:58.422Z,1.60
2023-11-10T10:34:27.272Z,1.45
2023-11-10T10:36:56.296Z,1.30
2023-11-10T10:39:24.462Z,0.98
2023-11-10T10:41:51.538Z,1.35
2023-11-10T10:44:21.976Z,0.95
2023-11-10T10:46:50.635Z,1.50
2023-11-10T10:49:18.635Z,1.20
2023-11-10T10:51:47.908Z,1.45
2023-11-10T10:54:17.427Z,2.37
2023-11-10T10:56:45.867Z,1.87
2023-11-10T10:59:13.917Z,1.45
2023-11-10T11:01:44.257Z,1.30
2023-11-10T11:04:32.922Z,1.30
2023-11-10T11:07:40.157Z,1.30
2023-11-10T11:10:30.694Z,1.20
2023-11-10T11:13:24.340Z,1.25
2023-11-10T11:16:12.913Z,0.95
2023-11-10T11:19:02.668Z,1.10
2023-11-10T11:21:30.160Z,1.13
2023-11-10T11:23:59.903Z,1.02
2023-11-10T11:26:28.037Z,0.93
2023-11-10T11:29:08.160Z,1.42
2023-11-10T11:31:48.365Z,1.75
2023-11-10T11:34:20.272Z,1.33
2023-11-10T11:36:49.226Z,1.45
2023-11-10T11:39:21.129Z,0.90
2023-11-10T11:41:53.309Z,0.90
2023-11-10T11:44:26.025Z,1.60
2023-11-10T11:47:04.643Z,1.10
2023-11-10T11:49:32.526Z,1.38
2023-11-10T11:52:00.646Z,1.50
2023-11-10T11:54:28.285Z,1.30
2023-11-10T11:56:56.724Z,1.25
2023-11-10T11:59:24.958Z,1.17
2023-11-10T12:01:53.228Z,1.30
2023-11-10T12:04:20.465Z,1.20
2023-11-10T12:06:48.446Z,1.40
2023-11-10T12:09:15.799Z,1.30
2023-11-10T12:11:43.757Z,1.20
2023-11-10T12:14:10.989Z,1.00
2023-11-10T12:16:40.159Z,0.98
2023-11-10T12:19:08.405Z,1.05
2023-11-10T12:21:35.808Z,1.48
2023-11-10T12:24:05.818Z,1.00
2023-11-10T12:26:38.806Z,1.15
2023-11-10T12:29:11.244Z,1.30
2023-11-10T12:31:38.849Z,1.05
2023-11-10T12:34:06.845Z,1.30
2023-11-10T12:36:38.736Z,1.25
2023-11-10T12:39:18.458Z,1.27
2023-11-10T12:41:47.391Z,0.95
2023-11-10T12:44:18.333Z,1.10
2023-11-10T12:47:02.145Z,1.20
2023-11-10T12:49:30.836Z,0.98
2023-11-10T12:52:04.440Z,1.27
2023-11-10T12:54:31.805Z,1.00
2023-11-10T12:56:58.949Z,1.02
2023-11-10T12:59:32.865Z,0.80
2023-11-10T13:02:01.657Z,1.30
2023-11-10T13:04:29.272Z,1.00
2023-11-10T13:06:57.366Z,0.95
2023-11-10T13:09:27.990Z,0.80
2023-11-10T13:11:55.331Z,0.60
2023-11-10T13:14:23.178Z,0.85
2023-11-10T13:16:50.452Z,0.90
2023-11-10T13:19:17.671Z,1.00
2023-11-10T13:21:44.792Z,0.70
2023-11-10T13:24:12.477Z,0.90
2023-11-10T13:26:39.895Z,0.90
2023-11-10T13:29:08.878Z,0.50
2023-11-10T13:31:38.012Z,0.80
2023-11-10T13:34:09.165Z,0.90
2023-11-10T13:36:36.839Z,0.60
2023-11-10T13:39:04.154Z,0.68
2023-11-10T13:41:37.043Z,0.73
2023-11-10T13:44:10.992Z,0.60
2023-11-10T13:46:38.563Z,0.60
2023-11-10T13:49:06.134Z,0.60
2023-11-10T13:51:36.289Z,0.80
2023-11-10T13:54:05.379Z,0.82
2023-11-10T13:56:35.054Z,0.85
2023-11-10T13:59:02.246Z,0.60
2023-11-10T14:01:29.463Z,0.63
2023-11-10T14:03:58.854Z,1.13
2023-11-10T14:06:30.456Z,1.00
2023-11-10T14:08:58.109Z,0.90
2023-11-10T14:11:26.953Z,0.93
2023-11-10T14:13:54.176Z,0.90
2023-11-10T14:16:21.844Z,2.80
2023-11-10T14:18:50.059Z,0.75
2023-11-10T14:21:17.605Z,0.47
2023-11-10T14:23:44.747Z,0.80
2023-11-10T14:26:11.920Z,0.70
2023-11-10T14:28:39.006Z,0.63
2023-11-10T14:31:06.108Z,0.75
2023-11-10T14:33:33.333Z,0.60
2023-11-10T14:36:02.844Z,0.57
2023-11-10T14:38:38.556Z,0.80
2023-11-10T14:41:11.241Z,1.00
2023-11-10T14:43:38.677Z,0.50
2023-11-10T14:46:09.516Z,0.70
2023-11-10T14:48:46.522Z,0.57
2023-11-10T14:51:23.826Z,0.80
2023-11-10T14:53:51.308Z,0.60
2023-11-10T14:56:19.286Z,0.50
2023-11-10T14:58:48.325Z,0.57
2023-11-10T15:01:16.326Z,0.60
2023-11-10T15:03:47.146Z,0.55
2023-11-10T15:06:17.794Z,0.60
2023-11-10T15:08:45.892Z,0.50
2023-11-10T15:11:16.214Z,0.45
2023-11-10T15:13:43.411Z,0.63
2023-11-10T15:16:11.238Z,0.57
2023-11-10T15:18:38.460Z,0.60
2023-11-10T15:21:06.652Z,0.85
2023-11-10T15:23:33.745Z,0.63
2023-11-10T15:26:01.393Z,0.52
2023-11-10T15:28:28.919Z,0.50
2023-11-10T15:30:56.108Z,0.47
2023-11-10T15:33:23.233Z,0.50
2023-11-10T15:35:52.307Z,0.50
2023-11-10T15:38:21.027Z,0.30
2023-11-10T15:40:49.855Z,0.43
2023-11-10T15:43:18.350Z,0.40
2023-11-10T15:45:47.032Z,0.70
2023-11-10T15:48:14.136Z,0.30
2023-11-10T15:50:41.861Z,0.60
2023-11-10T15:53:09.003Z,0.55
2023-11-10T15:55:36.915Z,0.68
2023-11-10T15:58:04.200Z,0.40
2023-11-10T16:00:31.473Z,0.70
2023-11-10T16:02:58.787Z,0.60
2023-11-10T16:05:26.700Z,0.52
2023-11-10T16:07:53.835Z,0.70
2023-11-10T16:10:22.670Z,0.70
2023-11-10T16:12:53.258Z,0.70
2023-11-10T16:15:20.600Z,0.80
2023-11-10T16:17:48.618Z,0.52
2023-11-10T16:20:15.994Z,0.80
2023-11-10T16:22:44.373Z,0.55
2023-11-10T16:25:11.964Z,0.52
2023-11-10T16:27:39.337Z,0.60
2023-11-10T16:30:08.385Z,0.52
2023-11-10T16:32:35.537Z,0.60
2023-11-10T16:35:02.771Z,0.60
2023-11-10T16:37:29.829Z,0.50
2023-11-10T16:39:57.280Z,0.30
2023-11-10T16:42:25.821Z,0.65
2023-11-10T16:44:52.901Z,0.60
2023-11-10T16:47:20.912Z,0.45
2023-11-10T16:49:51.202Z,0.60
2023-11-10T16:52:18.450Z,0.80
2023-11-10T16:54:45.637Z,0.60
2023-11-10T16:57:12.863Z,0.65
2023-11-10T16:59:40.062Z,0.70
2023-11-10T17:02:07.761Z,1.00
2023-11-10T17:04:35.533Z,1.20
2023-11-10T17:07:02.977Z,0.70
2023-11-10T17:09:30.966Z,0.70
2023-11-10T17:11:59.345Z,0.80
2023-11-10T17:14:27.528Z,0.70
2023-11-10T17:16:55.763Z,0.68
2023-11-10T17:19:22.985Z,0.70
2023-11-10T17:21:50.216Z,0.95
2023-11-10T17:24:17.518Z,0.70
2023-11-10T17:26:44.818Z,0.98
2023-11-10T17:29:11.948Z,0.70
2023-11-10T17:31:39.266Z,0.70
2023-11-10T17:34:09.413Z,0.80
2023-11-10T17:36:37.541Z,0.73
2023-11-10T17:39:05.485Z,0.60
2023-11-10T17:41:32.598Z,0.70
2023-11-10T17:44:00.400Z,0.60
2023-11-10T17:46:28.832Z,0.93
2023-11-10T17:48:56.124Z,0.70
2023-11-10T17:51:24.414Z,0.52
2023-11-10T17:53:51.584Z,0.68
2023-11-10T17:56:18.729Z,0.70
2023-11-10T17:58:45.762Z,0.85
2023-11-10T18:01:13.042Z,0.65
2023-11-10T18:03:40.306Z,0.73
2023-11-10T18:06:08.478Z,0.73
2023-11-10T18:08:35.801Z,0.77
2023-11-10T18:11:03.022Z,0.80
2023-11-10T18:13:30.115Z,0.73
2023-11-10T18:15:57.281Z,0.70
2023-11-10T18:18:24.393Z,0.60
2023-11-10T18:20:51.772Z,0.60
2023-11-10T18:23:18.989Z,0.70
2023-11-10T18:25:46.230Z,0.70
2023-11-10T18:28:13.429Z,0.98
2023-11-10T18:30:40.831Z,0.50
2023-11-10T18:33:08.368Z,0.80
2023-11-10T18:35:35.726Z,0.70
2023-11-10T18:38:02.847Z,0.70
2023-11-10T18:40:29.942Z,0.60
2023-11-10T18:42:57.405Z,0.60
2023-11-10T18:45:24.960Z,0.80
2023-11-10T18:47:52.146Z,0.57
2023-11-10T18:50:22.102Z,0.63
2023-11-10T18:52:50.860Z,0.57
2023-11-10T18:55:18.822Z,0.52
2023-11-10T18:57:52.282Z,0.77
2023-11-10T19:00:20.079Z,0.68
2023-11-10T19:02:47.206Z,1.33
2023-11-10T19:05:14.784Z,1.65
2023-11-10T19:07:41.980Z,1.80
2023-11-10T19:10:11.591Z,1.10
2023-11-10T19:12:39.169Z,0.95
2023-11-10T19:15:07.289Z,0.80
2023-11-10T19:17:34.466Z,0.90
2023-11-10T19:20:04.682Z,1.08
2023-11-10T19:22:32.302Z,1.05
2023-11-10T19:24:59.556Z,1.05
2023-11-10T19:27:26.602Z,0.90
2023-11-10T19:29:53.810Z,1.00
2023-11-10T19:32:22.634Z,0.80
2023-11-10T19:34:50.043Z,0.90
2023-11-10T19:37:17.144Z,0.80
2023-11-10T19:39:44.497Z,0.70
2023-11-10T19:42:11.660Z,1.00
2023-11-10T19:44:38.932Z,1.13
2023-11-10T19:47:06.280Z,1.33
2023-11-10T19:49:52.845Z,1.05
2023-11-10T19:57:21.195Z,0.73
2023-11-10T20:02:20.023Z,1.25
2023-11-10T20:04:47.319Z,1.52
2023-11-10T20:07:14.441Z,1.95
2023-11-10T20:09:41.690Z,1.30
2023-11-10T20:12:11.784Z,1.10
2023-11-10T20:14:39.111Z,1.20
2023-11-10T20:17:06.215Z,1.38
2023-11-10T20:19:35.010Z,1.08
2023-11-10T20:22:03.115Z,1.10
2023-11-10T20:24:30.491Z,1.27
2023-11-10T20:26:57.834Z,0.93
2023-11-10T20:29:24.945Z,1.00
2023-11-10T20:31:52.086Z,0.95
2023-11-10T20:34:19.271Z,1.08
2023-11-10T20:36:46.416Z,0.95
2023-11-10T20:39:13.581Z,1.05
2023-11-10T20:41:40.757Z,1.52
2023-11-10T20:44:08.138Z,1.38
2023-11-10T20:46:37.877Z,0.93
2023-11-10T20:49:05.037Z,1.30
2023-11-10T20:51:33.536Z,1.35
2023-11-10T20:54:01.033Z,1.40
2023-11-10T20:56:29.637Z,1.05
2023-11-10T20:58:56.841Z,1.00
2023-11-10T21:01:24.118Z,1.40
2023-11-10T21:03:51.486Z,0.93
2023-11-10T21:06:20.968Z,1.65
2023-11-10T21:08:48.251Z,1.42
2023-11-10T21:11:15.391Z,1.15
2023-11-10T21:13:43.370Z,1.35
2023-11-10T21:16:10.718Z,1.30
2023-11-10T21:18:38.446Z,1.30
2023-11-10T21:21:11.319Z,1.10
2023-11-10T21:23:38.554Z,1.52
2023-11-10T21:26:06.262Z,1.40
2023-11-10T21:28:33.413Z,2.03
2023-11-10T21:31:00.458Z,1.52
2023-11-10T21:33:30.571Z,2.10
2023-11-10T21:36:01.085Z,2.28
2023-11-10T21:38:28.721Z,1.70
2023-11-10T21:40:56.523Z,1.63
2023-11-10T21:43:23.718Z,2.15
2023-11-10T21:45:50.782Z,1.50
2023-11-10T21:48:19.328Z,1.63
2023-11-10T21:50:47.921Z,1.65
2023-11-10T21:53:15.470Z,1.45
2023-11-10T21:55:44.066Z,1.80
2023-11-10T21:58:14.304Z,1.20
2023-11-10T22:00:42.820Z,1.20
2023-11-10T22:03:10.478Z,1.30
2023-11-10T22:05:37.864Z,1.20
2023-11-10T22:08:05.426Z,1.30
2023-11-10T22:10:32.540Z,1.17
2023-11-10T22:13:08.857Z,1.55
2023-11-10T22:15:36.382Z,1.10
2023-11-10T22:18:06.690Z,1.70
2023-11-10T22:20:35.224Z,1.60
2023-11-10T22:23:02.307Z,1.48
2023-11-10T22:25:31.145Z,1.27
2023-11-10T22:28:00.336Z,1.23
2023-11-10T22:30:28.234Z,0.95
2023-11-10T22:32:55.357Z,1.35
2023-11-10T22:35:22.543Z,0.80
2023-11-10T22:37:49.682Z,1.05
2023-11-10T22:40:19.568Z,1.10
2023-11-10T22:42:48.333Z,1.30
2023-11-10T22:45:17.360Z,1.40
2023-11-10T22:47:48.124Z,1.30
2023-11-10T22:50:16.343Z,1.10
2023-11-10T22:52:43.733Z,1.42
2023-11-10T22:55:15.989Z,1.13
2023-11-10T22:57:44.606Z,1.50
2023-11-10T23:00:30.401Z,1.10
2023-11-10T23:02:57.731Z,1.50
2023-11-10T23:05:25.211Z,1.67
2023-11-10T23:07:52.435Z,1.65
2023-11-10T23:10:19.613Z,1.73
2023-11-10T23:12:46.769Z,1.50
2023-11-10T23:15:13.973Z,1.50
2023-11-10T23:17:45.823Z,1.52
2023-11-10T23:20:25.868Z,1.90
2023-11-10T23:22:58.479Z,1.58
2023-11-10T23:25:25.848Z,1.52
2023-11-10T23:27:52.947Z,1.50
2023-11-10T23:30:20.177Z,1.30
2023-11-10T23:32:47.368Z,1.55
2023-11-10T23:35:14.516Z,1.55
2023-11-10T23:37:42.385Z,1.50
2023-11-10T23:40:10.064Z,1.50
2023-11-10T23:42:38.962Z,1.20
2023-11-10T23:45:08.111Z,1.88
2023-11-10T23:47:36.948Z,1.40
2023-11-10T23:50:07.862Z,1.52
2023-11-10T23:52:36.095Z,1.40
2023-11-10T23:55:04.168Z,1.63
2023-11-10T23:57:31.737Z,1.70
2023-11-10T23:59:58.912Z,1.55
